sensor_id;sensor_type;location;lat;lon;timestamp;pressure;altitude;pressure_sealevel;temperature;humidity
13553;BME280;6847;48.830;9.116;2023-02-28T00:00:53;98564.00;;;1.25;39.77
13553;BME280;6847;48.830;9.116;2023-02-28T00:03:40;98577.97;;;1.34;39.79
13553;BME280;6847;48.830;9.116;2023-02-28T00:06:26;98589.28;;;1.36;39.58
13553;BME280;6847;48.830;9.116;2023-02-28T00:09:12;98561.53;;;1.24;39.98
13553;BME280;6847;48.830;9.116;2023-02-28T00:11:57;98583.31;;;1.34;40.03
13553;BME280;6847;48.830;9.116;2023-02-28T00:14:42;98583.31;;;1.34;39.88
13553;BME280;6847;48.830;9.116;2023-02-28T00:17:28;98568.09;;;1.28;40.09
13553;BME280;6847;48.830;9.116;2023-02-28T00:20:15;98577.13;;;1.27;40.36
13553;BME280;6847;48.830;9.116;2023-02-28T00:23:01;98565.22;;;1.23;40.19
13553;BME280;6847;48.830;9.116;2023-02-28T00:25:47;98562.75;;;1.28;40.19
13553;BME280;6847;48.830;9.116;2023-02-28T00:28:32;98587.00;;;1.33;40.29
13553;BME280;6847;48.830;9.116;2023-02-28T00:31:18;98577.97;;;1.34;40.29
13553;BME280;6847;48.830;9.116;2023-02-28T00:34:03;98577.16;;;1.33;40.33
13553;BME280;6847;48.830;9.116;2023-02-28T00:36:49;98556.38;;;1.16;40.52
13553;BME280;6847;48.830;9.116;2023-02-28T00:39:36;98564.38;;;1.16;40.47
13553;BME280;6847;48.830;9.116;2023-02-28T00:42:23;98576.72;;;1.23;40.31
13553;BME280;6847;48.830;9.116;2023-02-28T00:45:09;98522.03;;;0.86;40.97
13553;BME280;6847;48.830;9.116;2023-02-28T00:47:54;98584.91;;;1.22;40.71
13553;BME280;6847;48.830;9.116;2023-02-28T00:50:42;98581.22;;;1.23;40.67
13553;BME280;6847;48.830;9.116;2023-02-28T00:53:32;98579.56;;;1.22;40.78
13553;BME280;6847;48.830;9.116;2023-02-28T00:56:18;98563.75;;;1.14;40.82
13553;BME280;6847;48.830;9.116;2023-02-28T00:59:03;98579.97;;;1.19;41.02
13553;BME280;6847;48.830;9.116;2023-02-28T01:01:49;98570.09;;;1.13;40.96
13553;BME280;6847;48.830;9.116;2023-02-28T01:04:35;98577.72;;;1.16;41.03
13553;BME280;6847;48.830;9.116;2023-02-28T01:07:21;98555.31;;;1.03;41.19
13553;BME280;6847;48.830;9.116;2023-02-28T01:10:09;98584.47;;;1.18;41.04
13553;BME280;6847;48.830;9.116;2023-02-28T01:12:54;98548.75;;;1.06;41.19
13553;BME280;6847;48.830;9.116;2023-02-28T01:15:46;98553.69;;;1.09;41.28
13553;BME280;6847;48.830;9.116;2023-02-28T01:18:36;98533.16;;;1.03;41.40
13553;BME280;6847;48.830;9.116;2023-02-28T01:21:23;98554.09;;;1.13;41.67
13553;BME280;6847;48.830;9.116;2023-02-28T01:24:08;98547.13;;;1.11;41.72
13553;BME280;6847;48.830;9.116;2023-02-28T01:26:55;98566.84;;;1.17;41.67
13553;BME280;6847;48.830;9.116;2023-02-28T01:29:40;98567.66;;;1.18;41.56
13553;BME280;6847;48.830;9.116;2023-02-28T01:32:27;98562.31;;;1.18;41.74
13553;BME280;6847;48.830;9.116;2023-02-28T01:35:12;98530.25;;;0.91;41.79
13553;BME280;6847;48.830;9.116;2023-02-28T01:37:57;98558.22;;;1.15;41.86
13553;BME280;6847;48.830;9.116;2023-02-28T01:40:42;98554.94;;;1.13;41.85
13553;BME280;6847;48.830;9.116;2023-02-28T01:43:29;98567.06;;;1.16;41.87
13553;BME280;6847;48.830;9.116;2023-02-28T01:46:16;98520.78;;;0.89;41.80
13553;BME280;6847;48.830;9.116;2023-02-28T01:49:07;98562.09;;;1.13;42.02
13553;BME280;6847;48.830;9.116;2023-02-28T01:51:55;98564.78;;;1.13;42.04
13553;BME280;6847;48.830;9.116;2023-02-28T01:54:41;98563.75;;;1.14;42.39
13553;BME280;6847;48.830;9.116;2023-02-28T01:57:29;98459.16;;;0.51;42.14
13553;BME280;6847;48.830;9.116;2023-02-28T02:00:24;98552.06;;;1.15;42.12
13553;BME280;6847;48.830;9.116;2023-02-28T02:03:13;98559.06;;;1.16;42.22
13553;BME280;6847;48.830;9.116;2023-02-28T02:05:58;98536.44;;;1.05;42.35
13553;BME280;6847;48.830;9.116;2023-02-28T02:08:45;98553.72;;;1.16;42.36
13553;BME280;6847;48.830;9.116;2023-02-28T02:11:30;98548.38;;;1.16;42.36
13553;BME280;6847;48.830;9.116;2023-02-28T02:14:31;98550.03;;;1.17;42.44
13553;BME280;6847;48.830;9.116;2023-02-28T02:17:27;98546.13;;;1.19;42.51
13553;BME280;6847;48.830;9.116;2023-02-28T02:20:44;98539.38;;;1.17;42.51
13553;BME280;6847;48.830;9.116;2023-02-28T02:23:44;98534.03;;;1.17;42.47
13553;BME280;6847;48.830;9.116;2023-02-28T02:27:14;98527.44;;;1.13;42.53
13553;BME280;6847;48.830;9.116;2023-02-28T02:33:31;98530.53;;;1.23;42.58
13553;BME280;6847;48.830;9.116;2023-02-28T02:36:27;98518.84;;;1.17;42.53
13553;BME280;6847;48.830;9.116;2023-02-28T02:39:19;98471.19;;;0.94;42.72
13553;BME280;6847;48.830;9.116;2023-02-28T02:42:16;98530.97;;;1.33;42.61
13553;BME280;6847;48.830;9.116;2023-02-28T02:45:07;98527.91;;;1.36;42.70
13553;BME280;6847;48.830;9.116;2023-02-28T02:47:58;98478.63;;;1.05;42.82
13553;BME280;6847;48.830;9.116;2023-02-28T02:50:46;98533.44;;;1.41;42.85
13553;BME280;6847;48.830;9.116;2023-02-28T02:53:40;98501.84;;;1.25;42.88
13553;BME280;6847;48.830;9.116;2023-02-28T02:56:28;98528.34;;;1.46;42.99
13553;BME280;6847;48.830;9.116;2023-02-28T02:59:18;98475.34;;;1.17;43.17
13553;BME280;6847;48.830;9.116;2023-02-28T03:02:08;98518.50;;;1.46;43.08
13553;BME280;6847;48.830;9.116;2023-02-28T03:05:01;98527.94;;;1.56;43.11
13553;BME280;6847;48.830;9.116;2023-02-28T03:07:50;98524.22;;;1.50;43.13
13553;BME280;6847;48.830;9.116;2023-02-28T03:10:40;98527.31;;;1.54;43.09
13553;BME280;6847;48.830;9.116;2023-02-28T03:13:50;98515.63;;;1.55;43.14
13553;BME280;6847;48.830;9.116;2023-02-28T03:16:49;98527.31;;;1.60;43.21
13553;BME280;6847;48.830;9.116;2023-02-28T03:20:14;98541.47;;;1.67;43.50
13553;BME280;6847;48.830;9.116;2023-02-28T03:23:07;98526.69;;;1.58;43.41
13553;BME280;6847;48.830;9.116;2023-02-28T03:26:06;98541.06;;;1.70;43.58
13553;BME280;6847;48.830;9.116;2023-02-28T03:29:02;98509.03;;;1.57;43.56
13553;BME280;6847;48.830;9.116;2023-02-28T03:31:52;98534.91;;;1.76;43.43
13553;BME280;6847;48.830;9.116;2023-02-28T03:34:42;98495.69;;;1.51;43.32
13553;BME280;6847;48.830;9.116;2023-02-28T03:37:32;98535.53;;;1.78;43.52
13553;BME280;6847;48.830;9.116;2023-02-28T03:40:23;98517.28;;;1.75;43.80
13553;BME280;6847;48.830;9.116;2023-02-28T03:43:13;98515.63;;;1.74;43.72
13553;BME280;6847;48.830;9.116;2023-02-28T03:46:05;98516.03;;;1.78;43.73
13553;BME280;6847;48.830;9.116;2023-02-28T03:48:57;98531.22;;;1.84;43.76
13553;BME280;6847;48.830;9.116;2023-02-28T03:51:56;98460.81;;;1.45;43.87
13553;BME280;6847;48.830;9.116;2023-02-28T03:54:48;98527.53;;;1.85;43.91
13553;BME280;6847;48.830;9.116;2023-02-28T03:57:38;98523.03;;;1.85;43.99
13553;BME280;6847;48.830;9.116;2023-02-28T04:00:30;98526.72;;;1.84;43.99
13553;BME280;6847;48.830;9.116;2023-02-28T04:03:17;98526.28;;;1.88;44.16
13553;BME280;6847;48.830;9.116;2023-02-28T04:06:04;98490.75;;;1.67;44.30
13553;BME280;6847;48.830;9.116;2023-02-28T04:08:50;98497.94;;;1.67;44.54
13553;BME280;6847;48.830;9.116;2023-02-28T04:11:38;98462.66;;;1.45;43.68
13553;BME280;6847;48.830;9.116;2023-02-28T04:14:23;98537.38;;;1.98;44.09
13553;BME280;6847;48.830;9.116;2023-02-28T04:17:11;98511.53;;;1.85;43.95
13553;BME280;6847;48.830;9.116;2023-02-28T04:19:59;98541.47;;;2.07;43.91
13553;BME280;6847;48.830;9.116;2023-02-28T04:22:44;98534.06;;;2.09;44.15
13553;BME280;6847;48.830;9.116;2023-02-28T04:25:29;98536.94;;;2.07;44.22
13553;BME280;6847;48.830;9.116;2023-02-28T04:28:14;98544.75;;;2.09;44.24
13553;BME280;6847;48.830;9.116;2023-02-28T04:31:04;98541.88;;;2.10;44.03
13553;BME280;6847;48.830;9.116;2023-02-28T04:33:51;98539.03;;;2.12;44.30
13553;BME280;6847;48.830;9.116;2023-02-28T04:36:36;98518.47;;;2.06;44.35
13553;BME280;6847;48.830;9.116;2023-02-28T04:39:25;98523.19;;;2.17;44.47
13553;BME280;6847;48.830;9.116;2023-02-28T04:42:11;98517.25;;;2.15;44.53
13553;BME280;6847;48.830;9.116;2023-02-28T04:44:56;98463.44;;;1.78;44.24
13553;BME280;6847;48.830;9.116;2023-02-28T04:47:41;98512.94;;;2.14;44.47
13553;BME280;6847;48.830;9.116;2023-02-28T04:50:28;98529.34;;;2.24;44.65
13553;BME280;6847;48.830;9.116;2023-02-28T04:53:13;98527.09;;;2.21;44.60
13553;BME280;6847;48.830;9.116;2023-02-28T04:55:58;98530.38;;;2.23;44.81
13553;BME280;6847;48.830;9.116;2023-02-28T04:58:44;98533.66;;;2.25;44.74
13553;BME280;6847;48.830;9.116;2023-02-28T05:01:31;98535.91;;;2.28;44.43
13553;BME280;6847;48.830;9.116;2023-02-28T05:04:20;98523.78;;;2.19;44.44
13553;BME280;6847;48.830;9.116;2023-02-28T05:07:06;98531.19;;;2.30;44.86
13553;BME280;6847;48.830;9.116;2023-02-28T05:09:52;98530.31;;;2.36;44.95
13553;BME280;6847;48.830;9.116;2023-02-28T05:12:37;98542.88;;;2.42;44.97
13553;BME280;6847;48.830;9.116;2023-02-28T05:15:25;98536.06;;;2.46;44.74
13553;BME280;6847;48.830;9.116;2023-02-28T05:18:13;98452.34;;;1.95;44.51
13553;BME280;6847;48.830;9.116;2023-02-28T05:21:04;98537.72;;;2.47;44.60
13553;BME280;6847;48.830;9.116;2023-02-28T05:23:51;98537.72;;;2.47;44.55
13553;BME280;6847;48.830;9.116;2023-02-28T05:26:38;98539.34;;;2.48;44.88
13553;BME280;6847;48.830;9.116;2023-02-28T05:29:24;98541.41;;;2.46;45.04
13553;BME280;6847;48.830;9.116;2023-02-28T05:32:10;98531.56;;;2.40;44.85
13553;BME280;6847;48.830;9.116;2023-02-28T05:34:55;98543.66;;;2.49;45.29
13553;BME280;6847;48.830;9.116;2023-02-28T05:37:41;98544.28;;;2.51;45.32
13553;BME280;6847;48.830;9.116;2023-02-28T05:40:29;98518.41;;;2.39;44.96
13553;BME280;6847;48.830;9.116;2023-02-28T05:43:14;98537.28;;;2.50;44.77
13553;BME280;6847;48.830;9.116;2023-02-28T05:46:02;98549.00;;;2.49;44.80
13553;BME280;6847;48.830;9.116;2023-02-28T05:48:48;98550.03;;;2.48;45.15
13553;BME280;6847;48.830;9.116;2023-02-28T05:51:33;98544.31;;;2.45;45.21
13553;BME280;6847;48.830;9.116;2023-02-28T05:54:20;98532.41;;;2.34;45.34
13553;BME280;6847;48.830;9.116;2023-02-28T05:57:06;98546.16;;;2.44;45.25
13553;BME280;6847;48.830;9.116;2023-02-28T05:59:52;98549.66;;;2.45;45.33
13553;BME280;6847;48.830;9.116;2023-02-28T06:02:38;98527.88;;;2.28;45.28
13553;BME280;6847;48.830;9.116;2023-02-28T06:05:24;98472.88;;;2.01;45.48
13553;BME280;6847;48.830;9.116;2023-02-28T06:08:09;98505.31;;;2.24;44.97
13553;BME280;6847;48.830;9.116;2023-02-28T06:10:56;98510.41;;;2.32;45.37
13553;BME280;6847;48.830;9.116;2023-02-28T06:13:46;98471.63;;;2.10;45.44
13553;BME280;6847;48.830;9.116;2023-02-28T06:16:34;98561.09;;;2.65;45.43
13553;BME280;6847;48.830;9.116;2023-02-28T06:19:23;98535.41;;;2.57;45.51
13553;BME280;6847;48.830;9.116;2023-02-28T06:22:10;98495.81;;;2.41;45.22
13553;BME280;6847;48.830;9.116;2023-02-28T06:24:57;98567.44;;;2.84;45.31
13553;BME280;6847;48.830;9.116;2023-02-28T06:27:45;98560.22;;;2.84;45.27
13553;BME280;6847;48.830;9.116;2023-02-28T06:30:37;98498.69;;;2.40;45.06
13553;BME280;6847;48.830;9.116;2023-02-28T06:33:32;98519.63;;;2.49;45.27
13553;BME280;6847;48.830;9.116;2023-02-28T06:36:20;98542.19;;;2.67;45.03
13553;BME280;6847;48.830;9.116;2023-02-28T06:39:08;98572.53;;;2.85;45.34
13553;BME280;6847;48.830;9.116;2023-02-28T06:41:55;98577.06;;;2.85;45.39
13553;BME280;6847;48.830;9.116;2023-02-28T06:44:42;98584.28;;;2.84;45.43
13553;BME280;6847;48.830;9.116;2023-02-28T06:47:30;98584.50;;;2.83;45.22
13553;BME280;6847;48.830;9.116;2023-02-28T06:50:16;98340.56;;;1.34;45.28
13553;BME280;6847;48.830;9.116;2023-02-28T06:53:04;98392.44;;;1.58;45.20
13553;BME280;6847;48.830;9.116;2023-02-28T06:55:50;98537.72;;;2.54;45.21
13553;BME280;6847;48.830;9.116;2023-02-28T06:58:36;98585.72;;;2.87;45.37
13553;BME280;6847;48.830;9.116;2023-02-28T07:01:22;98393.25;;;1.71;45.38
13553;BME280;6847;48.830;9.116;2023-02-28T07:04:15;98531.53;;;2.47;45.42
13553;BME280;6847;48.830;9.116;2023-02-28T07:07:05;98308.97;;;1.18;45.35
13553;BME280;6847;48.830;9.116;2023-02-28T07:10:08;98265.94;;;0.94;45.24
13553;BME280;6847;48.830;9.116;2023-02-28T07:13:08;98589.78;;;2.96;45.24
13553;BME280;6847;48.830;9.116;2023-02-28T07:16:02;98593.75;;;2.93;45.64
13553;BME280;6847;48.830;9.116;2023-02-28T07:18:49;98409.66;;;1.81;45.40
13553;BME280;6847;48.830;9.116;2023-02-28T07:22:05;98402.66;;;1.80;45.23
13553;BME280;6847;48.830;9.116;2023-02-28T07:24:58;98394.03;;;1.78;45.71
13553;BME280;6847;48.830;9.116;2023-02-28T07:27:59;98407.97;;;1.87;45.17
13553;BME280;6847;48.830;9.116;2023-02-28T07:30:49;98609.50;;;3.08;45.74
13553;BME280;6847;48.830;9.116;2023-02-28T07:42:33;98496.22;;;2.38;45.18
13553;BME280;6847;48.830;9.116;2023-02-28T07:46:04;98322.09;;;1.26;45.10
13553;BME280;6847;48.830;9.116;2023-02-28T07:49:59;98606.41;;;3.11;45.32
13553;BME280;6847;48.830;9.116;2023-02-28T07:52:59;98377.44;;;1.70;45.36
13553;BME280;6847;48.830;9.116;2023-02-28T07:56:08;98410.03;;;1.92;45.13
13553;BME280;6847;48.830;9.116;2023-02-28T07:59:24;98370.63;;;1.80;45.21
13553;BME280;6847;48.830;9.116;2023-02-28T08:02:12;98312.22;;;1.46;45.74
13553;BME280;6847;48.830;9.116;2023-02-28T08:05:00;98611.47;;;3.32;45.39
13553;BME280;6847;48.830;9.116;2023-02-28T08:07:45;98581.47;;;3.17;45.21
13553;BME280;6847;48.830;9.116;2023-02-28T08:10:35;98512.53;;;2.75;45.31
13553;BME280;6847;48.830;9.116;2023-02-28T08:13:23;98619.63;;;3.51;45.46
13553;BME280;6847;48.830;9.116;2023-02-28T08:16:12;98626.16;;;3.55;45.57
13553;BME280;6847;48.830;9.116;2023-02-28T08:19:05;98498.31;;;2.81;45.69
13553;BME280;6847;48.830;9.116;2023-02-28T08:21:52;98622.03;;;3.59;45.21
13553;BME280;6847;48.830;9.116;2023-02-28T08:24:40;98528.84;;;3.05;45.26
13553;BME280;6847;48.830;9.116;2023-02-28T08:27:31;98352.09;;;1.99;45.29
13553;BME280;6847;48.830;9.116;2023-02-28T08:30:20;98613.19;;;3.58;45.28
13553;BME280;6847;48.830;9.116;2023-02-28T08:33:09;98562.69;;;3.30;45.79
13553;BME280;6847;48.830;9.116;2023-02-28T08:35:57;98426.28;;;2.54;45.04
13553;BME280;6847;48.830;9.116;2023-02-28T08:38:43;98531.25;;;3.19;45.03
13553;BME280;6847;48.830;9.116;2023-02-28T08:41:32;98427.06;;;2.62;45.36
13553;BME280;6847;48.830;9.116;2023-02-28T08:44:17;98582.03;;;3.70;45.17
13553;BME280;6847;48.830;9.116;2023-02-28T08:47:06;98628.31;;;4.09;45.21
13553;BME280;6847;48.830;9.116;2023-02-28T08:50:01;98597.41;;;4.06;45.48
13553;BME280;6847;48.830;9.116;2023-02-28T08:52:48;98483.88;;;3.26;45.30
13553;BME280;6847;48.830;9.116;2023-02-28T08:55:35;98617.81;;;4.07;45.48
13553;BME280;6847;48.830;9.116;2023-02-28T08:58:24;98626.59;;;4.15;44.79
13553;BME280;6847;48.830;9.116;2023-02-28T09:01:13;98637.66;;;4.25;45.49
13553;BME280;6847;48.830;9.116;2023-02-28T09:03:58;98642.53;;;4.34;44.97
13553;BME280;6847;48.830;9.116;2023-02-28T09:06:48;98650.50;;;4.41;45.52
13553;BME280;6847;48.830;9.116;2023-02-28T09:09:34;98646.97;;;4.47;44.88
13553;BME280;6847;48.830;9.116;2023-02-28T09:12:37;98578.38;;;4.15;45.29
13553;BME280;6847;48.830;9.116;2023-02-28T09:15:23;98633.72;;;4.52;45.10
13553;BME280;6847;48.830;9.116;2023-02-28T09:18:12;98642.69;;;4.64;45.37
13553;BME280;6847;48.830;9.116;2023-02-28T09:20:59;98614.69;;;4.60;44.94
13553;BME280;6847;48.830;9.116;2023-02-28T09:23:49;98635.56;;;4.76;45.15
13553;BME280;6847;48.830;9.116;2023-02-28T09:26:35;98636.38;;;4.77;45.35
13553;BME280;6847;48.830;9.116;2023-02-28T09:29:31;98627.22;;;4.84;44.70
13553;BME280;6847;48.830;9.116;2023-02-28T09:32:16;98643.09;;;5.04;45.20
13553;BME280;6847;48.830;9.116;2023-02-28T09:35:04;98622.91;;;5.02;44.91
13553;BME280;6847;48.830;9.116;2023-02-28T09:38:06;98648.38;;;5.29;44.35
13553;BME280;6847;48.830;9.116;2023-02-28T09:41:00;98553.44;;;4.75;44.98
13553;BME280;6847;48.830;9.116;2023-02-28T09:43:52;98576.25;;;5.03;44.67
13553;BME280;6847;48.830;9.116;2023-02-28T09:46:42;98617.25;;;5.28;44.67
13553;BME280;6847;48.830;9.116;2023-02-28T09:49:35;98659.03;;;5.54;44.48
13553;BME280;6847;48.830;9.116;2023-02-28T09:52:30;98655.38;;;5.48;45.12
13553;BME280;6847;48.830;9.116;2023-02-28T09:55:26;98465.84;;;4.33;44.60
13553;BME280;6847;48.830;9.116;2023-02-28T09:58:28;98399.66;;;3.97;44.59
13553;BME280;6847;48.830;9.116;2023-02-28T10:08:11;98425.28;;;4.29;43.96
13553;BME280;6847;48.830;9.116;2023-02-28T10:11:03;98589.03;;;5.37;43.96
13553;BME280;6847;48.830;9.116;2023-02-28T10:14:00;98599.69;;;5.44;43.72
13553;BME280;6847;48.830;9.116;2023-02-28T10:16:50;98623.59;;;5.64;43.88
13553;BME280;6847;48.830;9.116;2023-02-28T10:19:44;98648.63;;;5.94;44.54
13553;BME280;6847;48.830;9.116;2023-02-28T10:22:36;98571.34;;;5.59;44.15
13553;BME280;6847;48.830;9.116;2023-02-28T10:25:27;98671.38;;;6.21;43.42
13553;BME280;6847;48.830;9.116;2023-02-28T10:28:15;98533.88;;;5.23;43.56
13553;BME280;6847;48.830;9.116;2023-02-28T10:31:04;98674.72;;;6.05;44.15
13553;BME280;6847;48.830;9.116;2023-02-28T10:33:49;98619.53;;;5.73;43.83
13553;BME280;6847;48.830;9.116;2023-02-28T10:36:37;98685.75;;;6.27;44.02
13553;BME280;6847;48.830;9.116;2023-02-28T10:39:37;98618.38;;;6.10;43.74
13553;BME280;6847;48.830;9.116;2023-02-28T10:42:27;98572.41;;;5.88;43.19
13553;BME280;6847;48.830;9.116;2023-02-28T10:45:12;98440.31;;;5.38;43.30
13553;BME280;6847;48.830;9.116;2023-02-28T10:48:04;98599.97;;;6.84;43.03
13553;BME280;6847;48.830;9.116;2023-02-28T10:50:55;98566.31;;;7.10;43.10
13553;BME280;6847;48.830;9.116;2023-02-28T10:53:48;98681.88;;;8.31;41.78
13553;BME280;6847;48.830;9.116;2023-02-28T10:56:35;98657.66;;;8.53;41.78
13553;BME280;6847;48.830;9.116;2023-02-28T10:59:26;98643.75;;;8.78;41.99
13553;BME280;6847;48.830;9.116;2023-02-28T11:02:32;98643.44;;;8.91;42.28
13553;BME280;6847;48.830;9.116;2023-02-28T11:05:29;98592.44;;;8.39;42.17
13553;BME280;6847;48.830;9.116;2023-02-28T11:08:17;98666.31;;;9.05;42.03
13553;BME280;6847;48.830;9.116;2023-02-28T11:11:05;98623.09;;;9.05;41.07
13553;BME280;6847;48.830;9.116;2023-02-28T11:13:53;98513.06;;;9.22;40.88
13553;BME280;6847;48.830;9.116;2023-02-28T11:16:39;98658.19;;;10.41;39.96
13553;BME280;6847;48.830;9.116;2023-02-28T11:19:28;98668.03;;;10.84;40.27
13553;BME280;6847;48.830;9.116;2023-02-28T11:22:21;98614.22;;;10.29;40.74
13553;BME280;6847;48.830;9.116;2023-02-28T11:25:18;98619.97;;;10.11;41.03
13553;BME280;6847;48.830;9.116;2023-02-28T11:28:24;98653.72;;;10.25;40.59
13553;BME280;6847;48.830;9.116;2023-02-28T11:31:18;98652.09;;;10.24;40.94
13553;BME280;6847;48.830;9.116;2023-02-28T11:34:24;98651.38;;;10.12;40.84
13553;BME280;6847;48.830;9.116;2023-02-28T11:37:15;98657.59;;;10.66;40.96
13553;BME280;6847;48.830;9.116;2023-02-28T11:40:05;98639.97;;;11.53;40.34
13553;BME280;6847;48.830;9.116;2023-02-28T11:43:02;98651.03;;;12.18;38.98
13553;BME280;6847;48.830;9.116;2023-02-28T11:46:02;98643.44;;;12.46;38.65
13553;BME280;6847;48.830;9.116;2023-02-28T11:48:57;98645.34;;;12.86;39.41
13553;BME280;6847;48.830;9.116;2023-02-28T11:51:51;98635.66;;;13.64;37.95
13553;BME280;6847;48.830;9.116;2023-02-28T11:54:53;98647.28;;;14.29;38.19
13553;BME280;6847;48.830;9.116;2023-02-28T11:58:11;98595.44;;;14.44;37.54
13553;BME280;6847;48.830;9.116;2023-02-28T12:01:19;98637.56;;;14.57;37.76
13553;BME280;6847;48.830;9.116;2023-02-28T12:04:25;98629.53;;;14.32;38.27
13553;BME280;6847;48.830;9.116;2023-02-28T12:07:21;98599.63;;;13.83;39.03
13553;BME280;6847;48.830;9.116;2023-02-28T12:10:21;98639.69;;;13.77;38.95
13553;BME280;6847;48.830;9.116;2023-02-28T12:13:26;98629.47;;;13.44;39.10
13553;BME280;6847;48.830;9.116;2023-02-28T12:16:34;98635.50;;;13.41;39.50
13553;BME280;6847;48.830;9.116;2023-02-28T12:19:37;98634.97;;;13.28;39.90
13553;BME280;6847;48.830;9.116;2023-02-28T12:22:29;98514.19;;;12.24;39.48
13553;BME280;6847;48.830;9.116;2023-02-28T12:25:43;98618.47;;;12.64;40.34
13553;BME280;6847;48.830;9.116;2023-02-28T12:28:40;98601.91;;;12.81;39.33
13553;BME280;6847;48.830;9.116;2023-02-28T12:31:30;98630.63;;;13.27;38.94
13553;BME280;6847;48.830;9.116;2023-02-28T12:34:22;98624.66;;;13.20;39.03
13553;BME280;6847;48.830;9.116;2023-02-28T12:37:15;98624.44;;;12.86;39.52
13553;BME280;6847;48.830;9.116;2023-02-28T12:40:08;98619.56;;;12.68;39.85
13553;BME280;6847;48.830;9.116;2023-02-28T12:42:59;98563.63;;;12.32;39.59
13553;BME280;6847;48.830;9.116;2023-02-28T12:45:51;98610.31;;;12.64;39.29
13553;BME280;6847;48.830;9.116;2023-02-28T12:48:42;98505.53;;;12.17;39.46
13553;BME280;6847;48.830;9.116;2023-02-28T12:51:31;98604.22;;;13.38;38.79
13553;BME280;6847;48.830;9.116;2023-02-28T12:54:22;98583.72;;;13.61;38.39
13553;BME280;6847;48.830;9.116;2023-02-28T12:57:13;98579.00;;;13.71;38.17
13553;BME280;6847;48.830;9.116;2023-02-28T13:00:04;98595.81;;;13.84;38.32
13553;BME280;6847;48.830;9.116;2023-02-28T13:03:41;98546.00;;;13.88;37.75
13553;BME280;6847;48.830;9.116;2023-02-28T13:06:49;98558.13;;;14.01;37.34
13553;BME280;6847;48.830;9.116;2023-02-28T13:09:51;98601.66;;;14.50;37.52
13553;BME280;6847;48.830;9.116;2023-02-28T13:12:47;98594.41;;;14.98;37.34
13553;BME280;6847;48.830;9.116;2023-02-28T13:15:34;98590.50;;;15.52;36.62
13553;BME280;6847;48.830;9.116;2023-02-28T13:18:30;98564.44;;;15.41;36.70
13553;BME280;6847;48.830;9.116;2023-02-28T13:21:27;98591.09;;;15.73;36.65
13553;BME280;6847;48.830;9.116;2023-02-28T13:24:38;98450.59;;;15.28;36.22
13553;BME280;6847;48.830;9.116;2023-02-28T13:27:32;98569.34;;;16.38;35.97
13553;BME280;6847;48.830;9.116;2023-02-28T13:34:11;98567.31;;;16.11;36.19
13553;BME280;6847;48.830;9.116;2023-02-28T13:37:33;98593.09;;;16.23;36.63
13553;BME280;6847;48.830;9.116;2023-02-28T13:40:31;98488.16;;;15.73;36.19
13553;BME280;6847;48.830;9.116;2023-02-28T13:43:20;98576.88;;;16.64;36.10
13553;BME280;6847;48.830;9.116;2023-02-28T13:46:11;98584.84;;;17.07;35.87
13553;BME280;6847;48.830;9.116;2023-02-28T13:49:23;98545.28;;;16.86;35.69
13553;BME280;6847;48.830;9.116;2023-02-28T13:52:18;98594.78;;;17.03;35.46
13553;BME280;6847;48.830;9.116;2023-02-28T13:55:27;98594.16;;;17.33;35.21
13553;BME280;6847;48.830;9.116;2023-02-28T13:58:27;98587.69;;;17.70;35.33
13553;BME280;6847;48.830;9.116;2023-02-28T14:01:30;98589.06;;;17.95;34.91
13553;BME280;6847;48.830;9.116;2023-02-28T14:07:41;98561.31;;;17.33;35.15
13553;BME280;6847;48.830;9.116;2023-02-28T14:10:31;98601.25;;;17.07;35.37
13553;BME280;6847;48.830;9.116;2023-02-28T14:13:39;98566.88;;;16.74;35.40
13553;BME280;6847;48.830;9.116;2023-02-28T14:16:36;98555.50;;;16.48;35.66
13553;BME280;6847;48.830;9.116;2023-02-28T14:19:28;98601.03;;;16.90;35.13
13553;BME280;6847;48.830;9.116;2023-02-28T14:22:26;98512.41;;;16.58;35.16
13553;BME280;6847;48.830;9.116;2023-02-28T14:25:23;98594.69;;;17.35;34.98
13553;BME280;6847;48.830;9.116;2023-02-28T14:28:21;98574.91;;;17.38;34.40
13553;BME280;6847;48.830;9.116;2023-02-28T14:31:15;98585.06;;;17.38;34.87
13553;BME280;6847;48.830;9.116;2023-02-28T14:34:20;98565.78;;;17.29;34.68
13553;BME280;6847;48.830;9.116;2023-02-28T14:37:15;98509.25;;;16.84;35.00
13553;BME280;6847;48.830;9.116;2023-02-28T14:40:27;98366.56;;;15.95;34.77
13553;BME280;6847;48.830;9.116;2023-02-28T14:43:21;98592.34;;;17.15;34.95
13553;BME280;6847;48.830;9.116;2023-02-28T14:46:12;98580.97;;;17.08;34.84
13553;BME280;6847;48.830;9.116;2023-02-28T14:48:59;98574.47;;;17.04;34.68
13553;BME280;6847;48.830;9.116;2023-02-28T14:51:50;98590.91;;;17.18;34.35
13553;BME280;6847;48.830;9.116;2023-02-28T14:54:46;98558.28;;;16.94;34.16
13553;BME280;6847;48.830;9.116;2023-02-28T14:57:54;98585.22;;;17.14;34.20
13553;BME280;6847;48.830;9.116;2023-02-28T15:00:48;98453.63;;;16.28;34.43
13553;BME280;6847;48.830;9.116;2023-02-28T15:03:35;98593.97;;;17.02;34.16
13553;BME280;6847;48.830;9.116;2023-02-28T15:11:38;98577.69;;;16.79;34.04
13553;BME280;6847;48.830;9.116;2023-02-28T15:14:31;98521.19;;;16.42;34.28
13553;BME280;6847;48.830;9.116;2023-02-28T15:17:23;98580.56;;;16.55;33.86
13553;BME280;6847;48.830;9.116;2023-02-28T15:20:12;98598.88;;;16.54;33.90
13553;BME280;6847;48.830;9.116;2023-02-28T15:22:59;98583.63;;;16.35;33.79
13553;BME280;6847;48.830;9.116;2023-02-28T15:25:55;98561.09;;;15.86;33.96
13553;BME280;6847;48.830;9.116;2023-02-28T15:28:41;98574.19;;;15.71;33.95
13553;BME280;6847;48.830;9.116;2023-02-28T15:31:32;98559.94;;;15.50;34.05
13553;BME280;6847;48.830;9.116;2023-02-28T15:34:24;98592.75;;;15.69;33.94
13553;BME280;6847;48.830;9.116;2023-02-28T15:37:38;98600.78;;;15.60;33.66
13553;BME280;6847;48.830;9.116;2023-02-28T15:40:28;98521.81;;;15.02;33.80
13553;BME280;6847;48.830;9.116;2023-02-28T15:43:23;98510.59;;;14.80;33.84
13553;BME280;6847;48.830;9.116;2023-02-28T15:46:19;98587.97;;;15.13;33.69
13553;BME280;6847;48.830;9.116;2023-02-28T15:49:17;98505.59;;;14.39;33.78
13553;BME280;6847;48.830;9.116;2023-02-28T15:52:13;98438.53;;;13.81;33.85
13553;BME280;6847;48.830;9.116;2023-02-28T15:55:08;98468.91;;;13.93;33.73
13553;BME280;6847;48.830;9.116;2023-02-28T15:57:57;98447.97;;;13.59;33.74
13553;BME280;6847;48.830;9.116;2023-02-28T16:01:08;98588.59;;;14.47;33.96
13553;BME280;6847;48.830;9.116;2023-02-28T16:04:15;98598.50;;;14.33;33.84
13553;BME280;6847;48.830;9.116;2023-02-28T16:07:06;98601.06;;;14.14;33.62